sensor_id;sensor_type;location;lat;lon;timestamp;pressure;altitude;pressure_sealevel;temperature;humidity
68075;BME280;54864;52.002;5.468;2023-05-31T00:00:27;102525.06;;;13.60;74.85
68075;BME280;54864;52.002;5.468;2023-05-31T00:01:28;102524.06;;;13.64;74.57
68075;BME280;54864;52.002;5.468;2023-05-31T00:02:30;102525.81;;;13.66;74.61
68075;BME280;54864;52.002;5.468;2023-05-31T00:03:31;102517.69;;;13.72;74.70
68075;BME280;54864;52.002;5.468;2023-05-31T00:04:32;102518.59;;;13.71;74.47
68075;BME280;54864;52.002;5.468;2023-05-31T00:05:35;102523.75;;;13.75;74.33
68075;BME280;54864;52.002;5.468;2023-05-31T00:06:36;102519.91;;;13.56;74.38
68075;BME280;54864;52.002;5.468;2023-05-31T00:07:37;102524.19;;;13.60;74.80
68075;BME280;54864;52.002;5.468;2023-05-31T00:08:39;102520.78;;;13.56;74.62
68075;BME280;54864;52.002;5.468;2023-05-31T00:09:39;102521.78;;;13.52;74.71
68075;BME280;54864;52.002;5.468;2023-05-31T00:10:41;102514.88;;;13.47;74.97
68075;BME280;54864;52.002;5.468;2023-05-31T00:11:42;102518.13;;;13.56;74.95
68075;BME280;54864;52.002;5.468;2023-05-31T00:12:43;102520.78;;;13.56;74.99
68075;BME280;54864;52.002;5.468;2023-05-31T00:13:44;102527.31;;;13.45;74.86
68075;BME280;54864;52.002;5.468;2023-05-31T00:14:46;102520.00;;;13.53;75.00
68075;BME280;54864;52.002;5.468;2023-05-31T00:15:47;102527.09;;;13.52;75.19
68075;BME280;54864;52.002;5.468;2023-05-31T00:16:49;102515.66;;;13.50;75.22
68075;BME280;54864;52.002;5.468;2023-05-31T00:17:49;102513.75;;;13.55;74.80
68075;BME280;54864;52.002;5.468;2023-05-31T00:18:51;102513.97;;;13.48;74.95
68075;BME280;54864;52.002;5.468;2023-05-31T00:19:52;102519.28;;;13.48;74.98
68075;BME280;54864;52.002;5.468;2023-05-31T00:20:55;102518.41;;;13.47;75.31
68075;BME280;54864;52.002;5.468;2023-05-31T00:21:55;102524.47;;;13.51;75.46
68075;BME280;54864;52.002;5.468;2023-05-31T00:22:57;102521.09;;;13.46;75.10
68075;BME280;54864;52.002;5.468;2023-05-31T00:23:58;102525.66;;;13.41;75.20
68075;BME280;54864;52.002;5.468;2023-05-31T00:24:59;102524.53;;;13.20;76.03
68075;BME280;54864;52.002;5.468;2023-05-31T00:26:00;102522.69;;;13.22;76.31
68075;BME280;54864;52.002;5.468;2023-05-31T00:27:02;102522.44;;;13.31;76.12
68075;BME280;54864;52.002;5.468;2023-05-31T00:28:03;102520.78;;;13.27;76.24
68075;BME280;54864;52.002;5.468;2023-05-31T00:29:05;102519.00;;;13.27;76.35
68075;BME280;54864;52.002;5.468;2023-05-31T00:30:06;102518.91;;;13.30;76.11
68075;BME280;54864;52.002;5.468;2023-05-31T00:31:08;102519.91;;;13.26;76.07
68075;BME280;54864;52.002;5.468;2023-05-31T00:32:09;102515.53;;;13.25;76.13
68075;BME280;54864;52.002;5.468;2023-05-31T00:33:11;102514.81;;;13.20;76.15
68075;BME280;54864;52.002;5.468;2023-05-31T00:34:11;102518.63;;;13.09;76.78
68075;BME280;54864;52.002;5.468;2023-05-31T00:35:13;102526.41;;;13.15;77.63
68075;BME280;54864;52.002;5.468;2023-05-31T00:36:15;102517.78;;;13.08;77.25
68075;BME280;54864;52.002;5.468;2023-05-31T00:37:17;102519.72;;;13.01;77.30
68075;BME280;54864;52.002;5.468;2023-05-31T00:38:18;102515.13;;;13.08;77.38
68075;BME280;54864;52.002;5.468;2023-05-31T00:39:19;102522.38;;;13.01;77.37
68075;BME280;54864;52.002;5.468;2023-05-31T00:40:20;102519.69;;;13.03;78.13
68075;BME280;54864;52.002;5.468;2023-05-31T00:41:22;102523.47;;;12.93;77.86
68075;BME280;54864;52.002;5.468;2023-05-31T00:42:23;102519.59;;;13.06;78.00
68075;BME280;54864;52.002;5.468;2023-05-31T00:43:26;102516.47;;;12.90;77.77
68075;BME280;54864;52.002;5.468;2023-05-31T00:44:27;102526.00;;;12.97;77.98
68075;BME280;54864;52.002;5.468;2023-05-31T00:45:28;102522.38;;;13.01;77.95
68075;BME280;54864;52.002;5.468;2023-05-31T00:46:32;102513.88;;;12.89;78.20
68075;BME280;54864;52.002;5.468;2023-05-31T00:47:34;102519.78;;;12.98;78.07
68075;BME280;54864;52.002;5.468;2023-05-31T00:48:35;102518.00;;;13.00;77.66
68075;BME280;54864;52.002;5.468;2023-05-31T00:49:39;102514.44;;;13.01;77.51
68075;BME280;54864;52.002;5.468;2023-05-31T00:50:40;102521.38;;;13.06;77.71
68075;BME280;54864;52.002;5.468;2023-05-31T00:51:44;102518.78;;;13.04;77.45
68075;BME280;54864;52.002;5.468;2023-05-31T00:52:48;102511.84;;;12.98;77.86
68075;BME280;54864;52.002;5.468;2023-05-31T00:53:51;102512.88;;;12.93;77.88
68075;BME280;54864;52.002;5.468;2023-05-31T00:54:52;102512.69;;;13.00;77.51
68075;BME280;54864;52.002;5.468;2023-05-31T00:55:54;102510.78;;;13.06;77.69
68075;BME280;54864;52.002;5.468;2023-05-31T00:56:55;102513.56;;;13.01;77.34
68075;BME280;54864;52.002;5.468;2023-05-31T00:57:57;102512.31;;;12.82;78.51
68075;BME280;54864;52.002;5.468;2023-05-31T00:58:59;102507.63;;;12.91;78.62
68075;BME280;54864;52.002;5.468;2023-05-31T01:00:02;102514.00;;;12.84;78.62
68075;BME280;54864;52.002;5.468;2023-05-31T01:01:04;102513.06;;;12.87;78.73
68075;BME280;54864;52.002;5.468;2023-05-31T01:02:06;102510.66;;;12.78;78.39
68075;BME280;54864;52.002;5.468;2023-05-31T01:03:07;102511.34;;;12.84;78.70
68075;BME280;54864;52.002;5.468;2023-05-31T01:04:09;102512.31;;;12.82;78.28
68075;BME280;54864;52.002;5.468;2023-05-31T01:05:10;102510.63;;;12.79;78.50
68075;BME280;54864;52.002;5.468;2023-05-31T01:06:12;102508.66;;;12.86;78.78
68075;BME280;54864;52.002;5.468;2023-05-31T01:07:14;102517.31;;;12.92;78.04
68075;BME280;54864;52.002;5.468;2023-05-31T01:08:16;102520.13;;;12.86;78.03
68075;BME280;54864;52.002;5.468;2023-05-31T01:09:17;102520.16;;;12.85;78.42
68075;BME280;54864;52.002;5.468;2023-05-31T01:10:20;102523.81;;;12.81;78.25
68075;BME280;54864;52.002;5.468;2023-05-31T01:11:31;102522.06;;;12.80;78.09
68075;BME280;54864;52.002;5.468;2023-05-31T01:12:44;102518.50;;;12.81;78.03
68075;BME280;54864;52.002;5.468;2023-05-31T01:13:54;102522.13;;;12.78;78.17
68075;BME280;54864;52.002;5.468;2023-05-31T01:15:06;102529.06;;;12.82;78.45
68075;BME280;54864;52.002;5.468;2023-05-31T01:16:15;102532.03;;;12.70;78.74
68075;BME280;54864;52.002;5.468;2023-05-31T01:17:22;102527.66;;;12.69;78.95
68075;BME280;54864;52.002;5.468;2023-05-31T01:18:33;102527.44;;;12.77;78.25
68075;BME280;54864;52.002;5.468;2023-05-31T01:19:44;102518.72;;;12.73;77.91
68075;BME280;54864;52.002;5.468;2023-05-31T01:20:49;102522.91;;;12.82;78.01
68075;BME280;54864;52.002;5.468;2023-05-31T01:22:01;102523.88;;;12.45;79.12
68075;BME280;54864;52.002;5.468;2023-05-31T01:23:32;102520.97;;;12.56;79.15
68075;BME280;54864;52.002;5.468;2023-05-31T01:24:45;102522.81;;;12.52;79.25
68075;BME280;54864;52.002;5.468;2023-05-31T01:26:07;102530.03;;;12.46;79.89
68075;BME280;54864;52.002;5.468;2023-05-31T01:27:18;102524.75;;;12.46;79.88
68075;BME280;54864;52.002;5.468;2023-05-31T01:28:21;102523.00;;;12.45;80.07
68075;BME280;54864;52.002;5.468;2023-05-31T01:29:24;102520.56;;;12.37;80.19
68075;BME280;54864;52.002;5.468;2023-05-31T01:30:28;102519.84;;;12.29;80.73
68075;BME280;54864;52.002;5.468;2023-05-31T01:31:31;102524.63;;;12.50;79.84
68075;BME280;54864;52.002;5.468;2023-05-31T01:32:36;102521.13;;;12.50;79.55
68075;BME280;54864;52.002;5.468;2023-05-31T01:33:37;102516.63;;;12.53;79.80
68075;BME280;54864;52.002;5.468;2023-05-31T01:34:44;102525.53;;;12.49;79.63
68075;BME280;54864;52.002;5.468;2023-05-31T01:35:44;102505.25;;;12.50;78.92
68075;BME280;54864;52.002;5.468;2023-05-31T01:36:46;102512.31;;;12.49;79.21
68075;BME280;54864;52.002;5.468;2023-05-31T01:37:47;102512.22;;;12.52;79.21
68075;BME280;54864;52.002;5.468;2023-05-31T01:38:48;102509.13;;;12.35;80.06
68075;BME280;54864;52.002;5.468;2023-05-31T01:39:49;102512.44;;;12.09;80.90
68075;BME280;54864;52.002;5.468;2023-05-31T01:40:55;102505.84;;;12.25;80.95
68075;BME280;54864;52.002;5.468;2023-05-31T01:41:57;102511.88;;;12.30;80.62
68075;BME280;54864;52.002;5.468;2023-05-31T01:43:01;102511.81;;;12.33;80.44
68075;BME280;54864;52.002;5.468;2023-05-31T01:44:04;102512.59;;;12.38;80.03
68075;BME280;54864;52.002;5.468;2023-05-31T01:45:07;102514.28;;;12.41;79.99
68075;BME280;54864;52.002;5.468;2023-05-31T01:46:09;102516.72;;;12.49;79.66
68075;BME280;54864;52.002;5.468;2023-05-31T01:47:12;102515.03;;;12.46;79.42
68075;BME280;54864;52.002;5.468;2023-05-31T01:48:13;102516.06;;;12.41;79.21
68075;BME280;54864;52.002;5.468;2023-05-31T01:49:15;102517.22;;;12.29;79.98
68075;BME280;54864;52.002;5.468;2023-05-31T01:50:18;102516.19;;;12.36;80.31
68075;BME280;54864;52.002;5.468;2023-05-31T01:51:21;102515.31;;;12.34;80.12
68075;BME280;54864;52.002;5.468;2023-05-31T01:52:23;102517.81;;;12.42;80.11
68075;BME280;54864;52.002;5.468;2023-05-31T01:53:25;102513.38;;;12.06;80.91
68075;BME280;54864;52.002;5.468;2023-05-31T01:54:25;102508.50;;;12.25;80.90
68075;BME280;54864;52.002;5.468;2023-05-31T01:55:27;102509.25;;;12.30;80.30
68075;BME280;54864;52.002;5.468;2023-05-31T01:56:30;102512.13;;;12.21;80.57
68075;BME280;54864;52.002;5.468;2023-05-31T01:57:33;102511.84;;;12.32;80.56
68075;BME280;54864;52.002;5.468;2023-05-31T01:58:39;102510.03;;;12.34;80.12
68075;BME280;54864;52.002;5.468;2023-05-31T01:59:42;102511.97;;;12.27;80.59
68075;BME280;54864;52.002;5.468;2023-05-31T02:00:44;102509.31;;;11.92;82.02
68075;BME280;54864;52.002;5.468;2023-05-31T02:01:47;102513.41;;;12.05;81.78
68075;BME280;54864;52.002;5.468;2023-05-31T02:02:48;102513.97;;;12.18;81.49
68075;BME280;54864;52.002;5.468;2023-05-31T02:03:51;102516.47;;;12.24;80.67
68075;BME280;54864;52.002;5.468;2023-05-31T02:05:04;102516.16;;;12.00;81.84
68075;BME280;54864;52.002;5.468;2023-05-31T02:06:08;102513.84;;;11.87;82.39
68075;BME280;54864;52.002;5.468;2023-05-31T02:07:13;102502.88;;;12.03;82.06
68075;BME280;54864;52.002;5.468;2023-05-31T02:08:14;102509.84;;;12.06;81.54
68075;BME280;54864;52.002;5.468;2023-05-31T02:09:15;102521.13;;;12.14;81.78
68075;BME280;54864;52.002;5.468;2023-05-31T02:10:17;102521.91;;;12.18;81.15
68075;BME280;54864;52.002;5.468;2023-05-31T02:11:17;102521.16;;;12.13;80.64
68075;BME280;54864;52.002;5.468;2023-05-31T02:12:19;102520.34;;;12.09;80.81
68075;BME280;54864;52.002;5.468;2023-05-31T02:13:23;102514.91;;;12.15;80.87
68075;BME280;54864;52.002;5.468;2023-05-31T02:14:27;102506.94;;;12.17;80.52
68075;BME280;54864;52.002;5.468;2023-05-31T02:15:29;102498.91;;;12.21;80.11
68075;BME280;54864;52.002;5.468;2023-05-31T02:16:29;102506.91;;;12.18;79.98
68075;BME280;54864;52.002;5.468;2023-05-31T02:17:31;102507.00;;;12.15;80.36
68075;BME280;54864;52.002;5.468;2023-05-31T02:18:35;102505.13;;;12.19;80.36
68075;BME280;54864;52.002;5.468;2023-05-31T02:19:37;102505.06;;;12.22;79.99
68075;BME280;54864;52.002;5.468;2023-05-31T02:20:38;102505.88;;;12.24;79.78
68075;BME280;54864;52.002;5.468;2023-05-31T02:21:40;102511.25;;;12.21;79.87
68075;BME280;54864;52.002;5.468;2023-05-31T02:22:41;102504.25;;;12.18;80.17
68075;BME280;54864;52.002;5.468;2023-05-31T02:23:43;102511.41;;;12.15;80.21
68075;BME280;54864;52.002;5.468;2023-05-31T02:24:44;102503.66;;;12.07;80.57
68075;BME280;54864;52.002;5.468;2023-05-31T02:25:45;102511.63;;;12.05;80.76
68075;BME280;54864;52.002;5.468;2023-05-31T02:26:46;102508.91;;;12.09;80.76
68075;BME280;54864;52.002;5.468;2023-05-31T02:27:48;102509.00;;;12.05;80.75
68075;BME280;54864;52.002;5.468;2023-05-31T02:28:48;102507.25;;;12.04;80.77
68075;BME280;54864;52.002;5.468;2023-05-31T02:29:51;102516.09;;;12.03;80.48
68075;BME280;54864;52.002;5.468;2023-05-31T02:30:55;102514.28;;;12.05;80.33
68075;BME280;54864;52.002;5.468;2023-05-31T02:31:57;102512.75;;;11.95;80.70
68075;BME280;54864;52.002;5.468;2023-05-31T02:32:58;102521.63;;;11.93;81.50
68075;BME280;54864;52.002;5.468;2023-05-31T02:34:01;102515.38;;;11.97;81.40
68075;BME280;54864;52.002;5.468;2023-05-31T02:35:03;102513.59;;;11.97;81.32
68075;BME280;54864;52.002;5.468;2023-05-31T02:36:05;102511.78;;;11.99;81.48
68075;BME280;54864;52.002;5.468;2023-05-31T02:37:06;102509.81;;;12.07;80.83
68075;BME280;54864;52.002;5.468;2023-05-31T02:38:07;102503.69;;;12.05;80.77
68075;BME280;54864;52.002;5.468;2023-05-31T02:39:08;102504.59;;;12.04;81.14
68075;BME280;54864;52.002;5.468;2023-05-31T02:40:10;102501.06;;;12.05;80.72
68075;BME280;54864;52.002;5.468;2023-05-31T02:41:11;102491.41;;;12.04;80.87
68075;BME280;54864;52.002;5.468;2023-05-31T02:42:14;102491.69;;;11.92;80.78
68075;BME280;54864;52.002;5.468;2023-05-31T02:43:15;102498.00;;;11.87;81.09
68075;BME280;54864;52.002;5.468;2023-05-31T02:44:17;102496.16;;;11.90;81.32
68075;BME280;54864;52.002;5.468;2023-05-31T02:45:19;102499.50;;;11.97;81.32
68075;BME280;54864;52.002;5.468;2023-05-31T02:46:20;102497.84;;;11.93;81.13
68075;BME280;54864;52.002;5.468;2023-05-31T02:47:21;102498.81;;;11.89;81.61
68075;BME280;54864;52.002;5.468;2023-05-31T02:48:23;102502.53;;;11.82;81.81
68075;BME280;54864;52.002;5.468;2023-05-31T02:49:26;102495.53;;;11.79;82.18
68075;BME280;54864;52.002;5.468;2023-05-31T02:50:28;102499.09;;;11.78;82.30
68075;BME280;54864;52.002;5.468;2023-05-31T02:51:29;102507.97;;;11.74;82.43
68075;BME280;54864;52.002;5.468;2023-05-31T02:52:31;102497.28;;;11.80;82.53
68075;BME280;54864;52.002;5.468;2023-05-31T02:53:32;102491.09;;;11.81;81.96
68075;BME280;54864;52.002;5.468;2023-05-31T02:54:34;102493.91;;;11.72;82.32
68075;BME280;54864;52.002;5.468;2023-05-31T02:55:35;102498.28;;;11.73;82.21
68075;BME280;54864;52.002;5.468;2023-05-31T02:56:38;102505.09;;;11.85;81.85
68075;BME280;54864;52.002;5.468;2023-05-31T02:57:39;102498.88;;;11.87;81.68
68075;BME280;54864;52.002;5.468;2023-05-31T02:58:41;102495.38;;;11.85;81.34
68075;BME280;54864;52.002;5.468;2023-05-31T02:59:42;102494.53;;;11.85;81.27
68075;BME280;54864;52.002;5.468;2023-05-31T03:00:45;102496.19;;;11.89;81.52
68075;BME280;54864;52.002;5.468;2023-05-31T03:01:46;102488.28;;;11.87;81.30
68075;BME280;54864;52.002;5.468;2023-05-31T03:02:48;102491.00;;;11.84;81.47
68075;BME280;54864;52.002;5.468;2023-05-31T03:03:49;102484.25;;;11.69;81.96
68075;BME280;54864;52.002;5.468;2023-05-31T03:04:50;102486.88;;;11.69;82.49
68075;BME280;54864;52.002;5.468;2023-05-31T03:05:51;102485.28;;;11.62;83.05
68075;BME280;54864;52.002;5.468;2023-05-31T03:06:54;102487.66;;;11.76;82.52
68075;BME280;54864;52.002;5.468;2023-05-31T03:07:56;102483.41;;;11.67;82.39
68075;BME280;54864;52.002;5.468;2023-05-31T03:08:57;102486.09;;;11.66;82.61
68075;BME280;54864;52.002;5.468;2023-05-31T03:09:58;102480.69;;;11.72;82.52
68075;BME280;54864;52.002;5.468;2023-05-31T03:11:00;102482.47;;;11.70;82.69
68075;BME280;54864;52.002;5.468;2023-05-31T03:12:01;102487.84;;;11.67;82.57
68075;BME280;54864;52.002;5.468;2023-05-31T03:13:03;102494.75;;;11.74;82.32
68075;BME280;54864;52.002;5.468;2023-05-31T03:14:03;102482.34;;;11.78;81.96
68075;BME280;54864;52.002;5.468;2023-05-31T03:15:06;102487.78;;;11.68;82.37
68075;BME280;54864;52.002;5.468;2023-05-31T03:16:08;102484.72;;;11.50;83.06
68075;BME280;54864;52.002;5.468;2023-05-31T03:17:10;102481.06;;;11.55;83.57
68075;BME280;54864;52.002;5.468;2023-05-31T03:18:11;102487.50;;;11.43;83.82
68075;BME280;54864;52.002;5.468;2023-05-31T03:19:12;102490.84;;;11.50;83.56
68075;BME280;54864;52.002;5.468;2023-05-31T03:20:13;102487.00;;;11.65;83.31
68075;BME280;54864;52.002;5.468;2023-05-31T03:21:15;102486.25;;;11.60;83.34
68075;BME280;54864;52.002;5.468;2023-05-31T03:22:16;102485.13;;;11.70;82.83
68075;BME280;54864;52.002;5.468;2023-05-31T03:23:17;102478.88;;;11.74;82.25
68075;BME280;54864;52.002;5.468;2023-05-31T03:24:18;102483.72;;;11.54;83.35
68075;BME280;54864;52.002;5.468;2023-05-31T03:25:20;102488.13;;;11.55;83.09
68075;BME280;54864;52.002;5.468;2023-05-31T03:26:21;102482.75;;;11.58;82.87
68075;BME280;54864;52.002;5.468;2023-05-31T03:27:23;102480.84;;;11.64;82.79
68075;BME280;54864;52.002;5.468;2023-05-31T03:28:26;102482.50;;;11.68;82.52
68075;BME280;54864;52.002;5.468;2023-05-31T03:29:28;102475.38;;;11.73;81.98
68075;BME280;54864;52.002;5.468;2023-05-31T03:30:31;102481.50;;;11.75;81.95
68075;BME280;54864;52.002;5.468;2023-05-31T03:31:34;102477.94;;;11.77;81.76
68075;BME280;54864;52.002;5.468;2023-05-31T03:32:35;102486.75;;;11.79;81.54
68075;BME280;54864;52.002;5.468;2023-05-31T03:33:37;102488.28;;;11.87;81.40
68075;BME280;54864;52.002;5.468;2023-05-31T03:34:38;102485.78;;;11.81;81.56
68075;BME280;54864;52.002;5.468;2023-05-31T03:35:39;102481.47;;;11.79;81.18
68075;BME280;54864;52.002;5.468;2023-05-31T03:36:41;102488.63;;;11.72;81.52
68075;BME280;54864;52.002;5.468;2023-05-31T03:37:43;102475.44;;;11.69;81.69
68075;BME280;54864;52.002;5.468;2023-05-31T03:38:47;102478.31;;;11.60;82.12
68075;BME280;54864;52.002;5.468;2023-05-31T03:39:49;102471.16;;;11.65;82.16
68075;BME280;54864;52.002;5.468;2023-05-31T03:40:50;102476.25;;;11.74;81.86
68075;BME280;54864;52.002;5.468;2023-05-31T03:41:52;102471.78;;;11.76;81.72
68075;BME280;54864;52.002;5.468;2023-05-31T03:42:52;102481.41;;;11.80;80.98
68075;BME280;54864;52.002;5.468;2023-05-31T03:43:54;102477.06;;;11.76;80.83
68075;BME280;54864;52.002;5.468;2023-05-31T03:44:54;102478.13;;;11.67;81.59
68075;BME280;54864;52.002;5.468;2023-05-31T03:45:56;102479.84;;;11.70;81.65
68075;BME280;54864;52.002;5.468;2023-05-31T03:47:03;102466.66;;;11.68;81.43
68075;BME280;54864;52.002;5.468;2023-05-31T03:48:05;102468.88;;;11.50;82.42
68075;BME280;54864;52.002;5.468;2023-05-31T03:49:06;102473.16;;;11.54;82.38
68075;BME280;54864;52.002;5.468;2023-05-31T03:50:08;102476.50;;;11.62;82.46
68075;BME280;54864;52.002;5.468;2023-05-31T03:51:10;102480.06;;;11.61;82.29
68075;BME280;54864;52.002;5.468;2023-05-31T03:52:11;102480.13;;;11.58;82.42
68075;BME280;54864;52.002;5.468;2023-05-31T03:53:13;102486.50;;;11.48;83.41
68075;BME280;54864;52.002;5.468;2023-05-31T03:54:14;102484.63;;;11.53;83.06
68075;BME280;54864;52.002;5.468;2023-05-31T03:55:15;102485.53;;;11.52;83.06
68075;BME280;54864;52.002;5.468;2023-05-31T03:56:17;102490.53;;;11.64;82.62
68075;BME280;54864;52.002;5.468;2023-05-31T03:57:18;102486.31;;;11.57;82.42
68075;BME280;54864;52.002;5.468;2023-05-31T03:58:19;102491.72;;;11.51;82.83
68075;BME280;54864;52.002;5.468;2023-05-31T03:59:20;102493.38;;;11.56;82.91
68075;BME280;54864;52.002;5.468;2023-05-31T04:00:22;102492.50;;;11.56;82.75
68075;BME280;54864;52.002;5.468;2023-05-31T04:01:22;102498.69;;;11.55;82.65
68075;BME280;54864;52.002;5.468;2023-05-31T04:02:26;102500.44;;;11.54;82.78
68075;BME280;54864;52.002;5.468;2023-05-31T04:03:26;102503.09;;;11.54;83.18
68075;BME280;54864;52.002;5.468;2023-05-31T04:04:28;102496.84;;;11.58;83.10
68075;BME280;54864;52.002;5.468;2023-05-31T04:05:29;102500.28;;;11.62;82.86
68075;BME280;54864;52.002;5.468;2023-05-31T04:06:31;102496.97;;;11.52;83.06
68075;BME280;54864;52.002;5.468;2023-05-31T04:07:31;102495.09;;;11.57;82.87
68075;BME280;54864;52.002;5.468;2023-05-31T04:08:33;102498.84;;;11.47;83.05
68075;BME280;54864;52.002;5.468;2023-05-31T04:09:33;102492.06;;;11.35;83.35
68075;BME280;54864;52.002;5.468;2023-05-31T04:10:35;102498.81;;;11.49;83.71
68075;BME280;54864;52.002;5.468;2023-05-31T04:11:36;102491.16;;;11.36;83.87
68075;BME280;54864;52.002;5.468;2023-05-31T04:12:37;102495.38;;;11.45;83.82
68075;BME280;54864;52.002;5.468;2023-05-31T04:13:38;102496.91;;;11.55;83.40
68075;BME280;54864;52.002;5.468;2023-05-31T04:14:40;102495.03;;;11.60;83.14
68075;BME280;54864;52.002;5.468;2023-05-31T04:15:40;102490.94;;;11.47;83.51
68075;BME280;54864;52.002;5.468;2023-05-31T04:16:42;102492.50;;;11.56;83.56
68075;BME280;54864;52.002;5.468;2023-05-31T04:17:44;102501.34;;;11.53;83.40
68075;BME280;54864;52.002;5.468;2023-05-31T04:18:46;102502.13;;;11.58;83.43
68075;BME280;54864;52.002;5.468;2023-05-31T04:19:47;102505.56;;;11.62;83.06
68075;BME280;54864;52.002;5.468;2023-05-31T04:20:48;102502.84;;;11.65;82.85
68075;BME280;54864;52.002;5.468;2023-05-31T04:21:49;102508.03;;;11.69;83.01
68075;BME280;54864;52.002;5.468;2023-05-31T04:22:51;102513.25;;;11.74;82.46
68075;BME280;54864;52.002;5.468;2023-05-31T04:23:53;102507.09;;;11.73;82.47
68075;BME280;54864;52.002;5.468;2023-05-31T04:24:55;102513.31;;;11.71;82.64
68075;BME280;54864;52.002;5.468;2023-05-31T04:25:57;102509.06;;;11.62;83.01
68075;BME280;54864;52.002;5.468;2023-05-31T04:26:58;102511.56;;;11.68;83.20
68075;BME280;54864;52.002;5.468;2023-05-31T04:28:03;102509.75;;;11.72;82.90
68075;BME280;54864;52.002;5.468;2023-05-31T04:29:06;102510.63;;;11.72;82.89
68075;BME280;54864;52.002;5.468;2023-05-31T04:30:09;102511.44;;;11.78;82.68
68075;BME280;54864;52.002;5.468;2023-05-31T04:31:10;102509.50;;;11.84;82.63
68075;BME280;54864;52.002;5.468;2023-05-31T04:32:12;102508.59;;;11.85;82.21
68075;BME280;54864;52.002;5.468;2023-05-31T04:33:16;102509.66;;;11.77;82.56
68075;BME280;54864;52.002;5.468;2023-05-31T04:34:19;102519.09;;;11.88;82.47
68075;BME280;54864;52.002;5.468;2023-05-31T04:35:20;102506.84;;;11.86;82.29
68075;BME280;54864;52.002;5.468;2023-05-31T04:36:22;102512.28;;;11.78;82.58
68075;BME280;54864;52.002;5.468;2023-05-31T04:37:24;102507.78;;;11.83;82.98
68075;BME280;54864;52.002;5.468;2023-05-31T04:38:27;102500.00;;;11.75;83.06
68075;BME280;54864;52.002;5.468;2023-05-31T04:39:28;102509.69;;;11.75;82.91
68075;BME280;54864;52.002;5.468;2023-05-31T04:40:31;102504.69;;;11.61;83.79
68075;BME280;54864;52.002;5.468;2023-05-31T04:41:32;102500.00;;;11.75;83.52
68075;BME280;54864;52.002;5.468;2023-05-31T04:42:34;102507.78;;;11.83;83.17
68075;BME280;54864;52.002;5.468;2023-05-31T04:43:36;102500.84;;;11.36;84.81
68075;BME280;54864;52.002;5.468;2023-05-31T04:44:40;102505.66;;;11.57;84.89
68075;BME280;54864;52.002;5.468;2023-05-31T04:45:41;102501.81;;;11.73;83.98
68075;BME280;54864;52.002;5.468;2023-05-31T04:46:42;102496.44;;;11.77;83.90
68075;BME280;54864;52.002;5.468;2023-05-31T04:47:43;102499.84;;;11.83;83.73
68075;BME280;54864;52.002;5.468;2023-05-31T04:48:47;102498.03;;;11.85;83.60
68075;BME280;54864;52.002;5.468;2023-05-31T04:49:50;102499.88;;;11.82;83.54
68075;BME280;54864;52.002;5.468;2023-05-31T04:50:54;102498.88;;;11.87;83.77
68075;BME280;54864;52.002;5.468;2023-05-31T04:51:55;102497.81;;;11.94;83.41
68075;BME280;54864;52.002;5.468;2023-05-31T04:52:58;102505.81;;;11.91;83.48
68075;BME280;54864;52.002;5.468;2023-05-31T04:53:59;102499.66;;;11.91;83.22
68075;BME280;54864;52.002;5.468;2023-05-31T04:55:01;102508.31;;;11.97;83.22
68075;BME280;54864;52.002;5.468;2023-05-31T04:56:02;102502.34;;;11.89;83.76
68075;BME280;54864;52.002;5.468;2023-05-31T04:57:07;102515.56;;;11.89;83.55
68075;BME280;54864;52.002;5.468;2023-05-31T04:58:07;102504.78;;;11.97;83.48
68075;BME280;54864;52.002;5.468;2023-05-31T04:59:09;102509.81;;;12.07;83.32
68075;BME280;54864;52.002;5.468;2023-05-31T05:00:11;102506.22;;;12.10;83.16
68075;BME280;54864;52.002;5.468;2023-05-31T05:01:16;102513.97;;;12.18;83.00
68075;BME280;54864;52.002;5.468;2023-05-31T05:02:17;102508.97;;;12.07;82.84
68075;BME280;54864;52.002;5.468;2023-05-31T05:03:22;102516.78;;;12.12;82.97
68075;BME280;54864;52.002;5.468;2023-05-31T05:04:24;102511.22;;;12.22;82.73
68075;BME280;54864;52.002;5.468;2023-05-31T05:05:26;102507.94;;;12.13;82.59
68075;BME280;54864;52.002;5.468;2023-05-31T05:06:27;102505.66;;;11.97;83.22
68075;BME280;54864;52.002;5.468;2023-05-31T05:07:28;102507.97;;;12.11;83.21
68075;BME280;54864;52.002;5.468;2023-05-31T05:08:32;102502.84;;;12.05;83.16
68075;BME280;54864;52.002;5.468;2023-05-31T05:09:34;102505.44;;;12.06;83.49
68075;BME280;54864;52.002;5.468;2023-05-31T05:10:35;102509.72;;;12.12;83.54
68075;BME280;54864;52.002;5.468;2023-05-31T05:11:36;102502.91;;;12.02;83.42
68075;BME280;54864;52.002;5.468;2023-05-31T05:12:38;102512.31;;;12.14;83.57
68075;BME280;54864;52.002;5.468;2023-05-31T05:13:39;102507.84;;;12.16;83.55
68075;BME280;54864;52.002;5.468;2023-05-31T05:14:41;102508.00;;;12.10;83.51
68075;BME280;54864;52.002;5.468;2023-05-31T05:15:41;102503.56;;;12.12;83.74
68075;BME280;54864;52.002;5.468;2023-05-31T05:16:43;102499.31;;;12.04;84.06
68075;BME280;54864;52.002;5.468;2023-05-31T05:17:44;102511.94;;;12.29;83.83
68075;BME280;54864;52.002;5.468;2023-05-31T05:18:46;102515.31;;;12.35;83.10
68075;BME280;54864;52.002;5.468;2023-05-31T05:19:48;102511.75;;;12.36;83.04
68075;BME280;54864;52.002;5.468;2023-05-31T05:20:51;102517.72;;;12.45;82.75
68075;BME280;54864;52.002;5.468;2023-05-31T05:21:51;102512.47;;;12.43;82.62
68075;BME280;54864;52.002;5.468;2023-05-31T05:22:53;102509.63;;;12.51;82.50
68075;BME280;54864;52.002;5.468;2023-05-31T05:23:54;102513.41;;;12.41;82.54
68075;BME280;54864;52.002;5.468;2023-05-31T05:24:55;102514.31;;;12.40;82.72
68075;BME280;54864;52.002;5.468;2023-05-31T05:25:56;102511.28;;;12.55;82.46